Mountain Home, ID

7:47 PM MDT on September 23, 2014 (GMT -0600)
Mountain Home Air Force Base | Change Station
CLOSE
Current Station
Airport
Location: Mountain Home,
Elevation: 2995 ft
Nearby Weather Stations

Elev 2995 ft 43.04 °N, 115.87 °W | Updated 49 minutes ago

Partly Cloudy
Partly Cloudy
82 °F
Feels Like 82 °F
N
12
Wind Variable Wind from ESE

Today
High -- | Low -- °F
--% Chance of Precip.
Yesterday
High -- | Low -- °F
Precip. -- in
7:31 AM 7:38 PM
Waning Crescent, 0% visible
Pressure 29.84 in
Visibility 10.0 miles
Clouds Clear
Dew Point 50 °F
Humidity 32%
Rainfall 0.00 in
Snow Depth 0 in , 1 in , 2 in
UV 0 out of 12
Pollen 8.40 out of 12
PM2.5 Moderate
Flu Activity Not available.
METAR KMUO 240058Z AUTO 12010KT 10SM CLR 28/10 A2990 RMK AO2 SLP104 T02790099 $

More Conditions Fewer Conditions

Pressure 29.84 in
Visibility 10.0 miles
Clouds Clear
Dew Point 50 °F
Humidity 32%
Rainfall 0.00 in
Snow Depth 0 in , 1 in , 2 in
UV 0 out of 12
Pollen 8.40 out of 12
PM2.5 Moderate
Flu Activity Not available.
METAR KMUO 240058Z AUTO 12010KT 10SM CLR 28/10 A2990 RMK AO2 SLP104 T02790099 $

More Conditions Fewer Conditions

10-Day Weather Forecast

Almanac

Astronomy

Sep. 23, 2014 Rise Set
Actual Time 7:31 AM MDT 7:38 PM MDT
Civil Twilight 7:02 AM MDT 8:06 PM MDT
Nautical Twilight 6:29 AM MDT 8:39 PM MDT
Astronomical Twilight 5:55 AM MDT 9:13 PM MDT
Moon 6:59 AM MDT (9/23) 7:18 PM MDT (9/23)
Length of Visible Light 13h 03m
Length of Day
12h 06m
Tomorrow will be 2m 55s shorter.
Waning Crescent, 0% of the Moon is Illuminated
Today
Waning Crescent
Sep 24
New
Oct 1
First Quarter
Oct 8
Full
Oct 15
Last Quarter

Today's Extremes

State Highs State Lows

Community

WunderPhotos

Upload Photos

1,755,844 photos uploaded!

Nearby

Air Quality

  Air Quality AQ Index Pollutant
Yesterday Good
OZONE
Yesterday Good
PM10
Current Moderate
PM2.5
Tuesday Good
OZONE
Tuesday Good
PM2.5
Wednesday Moderate
PM2.5
Wednesday Good
OZONE
Thursday Moderate
PM2.5

Snow Depth

Station Depth Elevation
Lost-Wood Divide 0 in 7900 ft
Vienna Mine 1 in 8960 ft
Humboldt Gulch 2 in 4250 ft
Mosquito Ridge 0 in 5200 ft
Atlanta Summit 0 in 7580 ft

Earthquake Activity

City Distance Mag. Time & Date
No recent earthquake activity has been reported nearby.
Minimum magnitude displayed is 2.5.

Coastal Water Temperatures

Place Temperature
No Stations Reporting

Nearby Weather Stations